MSC Levina — 3FJR8 — position and weather

sailwx.info

Track history (hours):
 
Tides and Currents Weather Stations Pressure Air Temp Water Temp Dewpoint Dewpoint Depression Visibility Wind Speed Wind Dir Waves Ship Positions

MSC Levina

Last reported at 2016-Feb-09 18:33 UTC. Time now 2016-Feb-11 08:46 UTC.
Position N 08°11' W 014°36'.

Length 227.6 m; beam 32.2 m; draft 12.1 m.

Type: Cargo ship. MMSI: 355609000.

Date/timePositionNaut miles runAvg speedWind from/ knotsBaromVisibWave heightAir tempDewpointWater temp
2016-Feb-09 18:33N 08°11' W 014°36'1616.2
2016-Feb-09 17:33N 08°21' W 014°49'3516.3
2016-Feb-09 15:25N 08°42' W 015°17'1416.3
2016-Feb-09 14:33N 08°50' W 015°29'1616.2
2016-Feb-09 13:33N 09°00' W 015°42'1616.2
2016-Feb-09 12:33N 09°12' W 015°53'1616.4
2016-Feb-09 11:33N 09°25' W 016°02'1616.5
2016-Feb-09 10:33N 09°39' W 016°12'1616.4
2016-Feb-09 09:33N 09°52' W 016°22'1716.1
2016-Feb-09 08:30N 10°06' W 016°31'3416.5
2016-Feb-09 06:26N 10°34' W 016°52'1416.4
2016-Feb-09 05:33N 10°46' W 016°60'  
2016-Feb-04 06:33N 28°08' W 015°25'0 0.0
2016-Feb-04 05:33N 28°08' W 015°25'0 0.0
2016-Feb-04 04:33N 28°08' W 015°25'0 0.0
2016-Feb-04 03:33N 28°08' W 015°25'0 0.0
2016-Feb-04 02:24N 28°08' W 015°25'0 0.0
2016-Feb-04 01:27N 28°08' W 015°25'0 0.0
2016-Feb-04 00:27N 28°08' W 015°25'0 0.0
2016-Feb-03 23:27N 28°08' W 015°25'0 0.0
2016-Feb-03 22:30N 28°08' W 015°25'0 0.0
2016-Feb-03 21:30N 28°08' W 015°25'0 0.0
2016-Feb-03 20:29N 28°08' W 015°25'0 0.0
2016-Feb-03 19:33N 28°08' W 015°25'0 0.0
2016-Feb-03 18:32N 28°08' W 015°25'0 0.0
2016-Feb-03 17:32N 28°08' W 015°25'0 0.0
2016-Feb-03 16:32N 28°08' W 015°25'0 0.0
2016-Feb-03 15:32N 28°08' W 015°25'0 0.0
2016-Feb-03 14:32N 28°08' W 015°25'0 0.0
2016-Feb-03 13:32N 28°08' W 015°25'0 0.0
2016-Feb-03 12:23N 28°08' W 015°25'0 0.1
2016-Feb-03 11:33N 28°08' W 015°25'4 3.7
2016-Feb-03 10:33N 28°07' W 015°21'1211.9
2016-Feb-03 09:33N 28°16' W 015°11'1717.4
2016-Feb-03 08:33N 28°29' W 014°59'1717.2
2016-Feb-03 07:33N 28°42' W 014°46'1717.2
2016-Feb-03 06:33N 28°56' W 014°34'1717.0
2016-Feb-03 05:33N 29°09' W 014°21'1817.3
2016-Feb-03 04:32N 29°22' W 014°08'1817.1
2016-Feb-03 03:30N 29°36' W 013°55'1617.1
2016-Feb-03 02:33N 29°48' W 013°43'1717.2
2016-Feb-03 01:33N 30°01' W 013°30'1817.4
2016-Feb-03 00:33N 30°14' W 013°17'1817.5
2016-Feb-02 23:30N 30°28' W 013°03'42717.6
2016-Feb-01 23:14N 35°29' W 007°02'1418.1
2016-Feb-01 22:29N 35°37' W 006°48'1617.9
2016-Feb-01 21:33N 35°46' W 006°31'4815.9
2016-Feb-01 18:32N 35°59' W 005°33'1414.4
2016-Feb-01 17:33N 36°02' W 005°16'10116.6
2016-Feb-01 11:29N 36°18' W 003°14'1617.5
2016-Feb-01 10:33N 36°20' W 002°53'1717.2
2016-Feb-01 09:32N 36°23' W 002°32'1717.2
2016-Feb-01 08:34N 36°26' W 002°11'1717.2
2016-Feb-01 07:33N 36°38' W 001°55'1817.5
2016-Feb-01 06:33N 36°50' W 001°40'3417.1
2016-Feb-01 04:32N 37°11' W 001°06'1717.5
2016-Feb-01 03:33N 37°23' W 000°50'1717.1
2016-Feb-01 02:33N 37°34' W 000°34'1717.0
2016-Feb-01 01:33N 37°48' W 000°22'1717.2
2016-Feb-01 00:33N 38°03' W 000°10'1717.2
2016-Jan-31 23:33N 38°18' E 000°01'7013.8
2016-Jan-31 18:29N 39°26' W 000°18'1 0.6
2016-Jan-31 17:29N 39°26' W 000°19'0 0.0
2016-Jan-31 16:32N 39°26' W 000°19'0 0.0
2016-Jan-31 15:29N 39°26' W 000°19'0 0.0
2016-Jan-31 14:32N 39°26' W 000°19'0 0.0
2016-Jan-31 13:32N 39°26' W 000°19'0 0.0
2016-Jan-31 12:32N 39°26' W 000°19'0 0.0
2016-Jan-31 11:32N 39°26' W 000°19'0 0.0
2016-Jan-31 10:32N 39°26' W 000°19'0 0.0
2016-Jan-31 09:32N 39°26' W 000°19'0 0.0
2016-Jan-31 08:32N 39°26' W 000°19'0 0.0
2016-Jan-31 07:32N 39°26' W 000°19'0 0.0
2016-Jan-31 06:32N 39°26' W 000°19'0 0.0
2016-Jan-31 05:32N 39°26' W 000°19'0 0.0
2016-Jan-31 04:32N 39°26' W 000°19'0 0.0
2016-Jan-31 03:32N 39°26' W 000°19'0 0.0
2016-Jan-31 02:29N 39°26' W 000°19'0 0.0
2016-Jan-31 01:33N 39°26' W 000°19'1 0.6
2016-Jan-31 00:32N 39°26' W 000°19'0 0.0
2016-Jan-30 23:32N 39°26' W 000°19'0 0.0
2016-Jan-30 22:32N 39°26' W 000°19'0 0.0
2016-Jan-30 21:29N 39°26' W 000°19'0 0.0
2016-Jan-30 20:32N 39°26' W 000°19'0 0.0
2016-Jan-30 19:32N 39°26' W 000°19'  
Track history (hours):
 
Tides and Currents Weather Stations Pressure Air Temp Water Temp Dewpoint Dewpoint Depression Visibility Wind Speed Wind Dir Waves Ship Positions

MSC Levina

Last reported at 2016-Feb-09 18:33 UTC. Time now 2016-Feb-11 08:46 UTC.
Position N 08°11' W 014°36'.

Length 227.6 m; beam 32.2 m; draft 12.1 m.

Type: Cargo ship. MMSI: 355609000.

Date/timePositionNaut miles runAvg speedWind from/ knotsBaromVisibWave heightAir tempDewpointWater temp
2016-Feb-09 18:33N 08°11' W 014°36'1616.2
2016-Feb-09 17:33N 08°21' W 014°49'3516.3
2016-Feb-09 15:25N 08°42' W 015°17'1416.3
2016-Feb-09 14:33N 08°50' W 015°29'1616.2
2016-Feb-09 13:33N 09°00' W 015°42'1616.2
2016-Feb-09 12:33N 09°12' W 015°53'1616.4
2016-Feb-09 11:33N 09°25' W 016°02'1616.5
2016-Feb-09 10:33N 09°39' W 016°12'1616.4
2016-Feb-09 09:33N 09°52' W 016°22'1716.1
2016-Feb-09 08:30N 10°06' W 016°31'3416.5
2016-Feb-09 06:26N 10°34' W 016°52'1416.4
2016-Feb-09 05:33N 10°46' W 016°60'  
2016-Feb-04 06:33N 28°08' W 015°25'0 0.0
2016-Feb-04 05:33N 28°08' W 015°25'0 0.0
2016-Feb-04 04:33N 28°08' W 015°25'0 0.0
2016-Feb-04 03:33N 28°08' W 015°25'0 0.0
2016-Feb-04 02:24N 28°08' W 015°25'0 0.0
2016-Feb-04 01:27N 28°08' W 015°25'0 0.0
2016-Feb-04 00:27N 28°08' W 015°25'0 0.0
2016-Feb-03 23:27N 28°08' W 015°25'0 0.0
2016-Feb-03 22:30N 28°08' W 015°25'0 0.0
2016-Feb-03 21:30N 28°08' W 015°25'0 0.0
2016-Feb-03 20:29N 28°08' W 015°25'0 0.0
2016-Feb-03 19:33N 28°08' W 015°25'0 0.0
2016-Feb-03 18:32N 28°08' W 015°25'0 0.0
2016-Feb-03 17:32N 28°08' W 015°25'0 0.0
2016-Feb-03 16:32N 28°08' W 015°25'0 0.0
2016-Feb-03 15:32N 28°08' W 015°25'0 0.0
2016-Feb-03 14:32N 28°08' W 015°25'0 0.0
2016-Feb-03 13:32N 28°08' W 015°25'0 0.0
2016-Feb-03 12:23N 28°08' W 015°25'0 0.1
2016-Feb-03 11:33N 28°08' W 015°25'4 3.7
2016-Feb-03 10:33N 28°07' W 015°21'1211.9
2016-Feb-03 09:33N 28°16' W 015°11'1717.4
2016-Feb-03 08:33N 28°29' W 014°59'1717.2
2016-Feb-03 07:33N 28°42' W 014°46'1717.2
2016-Feb-03 06:33N 28°56' W 014°34'1717.0
2016-Feb-03 05:33N 29°09' W 014°21'1817.3
2016-Feb-03 04:32N 29°22' W 014°08'1817.1
2016-Feb-03 03:30N 29°36' W 013°55'1617.1
2016-Feb-03 02:33N 29°48' W 013°43'1717.2
2016-Feb-03 01:33N 30°01' W 013°30'1817.4
2016-Feb-03 00:33N 30°14' W 013°17'1817.5
2016-Feb-02 23:30N 30°28' W 013°03'42717.6
2016-Feb-01 23:14N 35°29' W 007°02'1418.1
2016-Feb-01 22:29N 35°37' W 006°48'1617.9
2016-Feb-01 21:33N 35°46' W 006°31'4815.9
2016-Feb-01 18:32N 35°59' W 005°33'1414.4
2016-Feb-01 17:33N 36°02' W 005°16'10116.6
2016-Feb-01 11:29N 36°18' W 003°14'1617.5
2016-Feb-01 10:33N 36°20' W 002°53'1717.2
2016-Feb-01 09:32N 36°23' W 002°32'1717.2
2016-Feb-01 08:34N 36°26' W 002°11'1717.2
2016-Feb-01 07:33N 36°38' W 001°55'1817.5
2016-Feb-01 06:33N 36°50' W 001°40'3417.1
2016-Feb-01 04:32N 37°11' W 001°06'1717.5
2016-Feb-01 03:33N 37°23' W 000°50'1717.1
2016-Feb-01 02:33N 37°34' W 000°34'1717.0
2016-Feb-01 01:33N 37°48' W 000°22'1717.2
2016-Feb-01 00:33N 38°03' W 000°10'1717.2
2016-Jan-31 23:33N 38°18' E 000°01'7013.8
2016-Jan-31 18:29N 39°26' W 000°18'1 0.6
2016-Jan-31 17:29N 39°26' W 000°19'0 0.0
2016-Jan-31 16:32N 39°26' W 000°19'0 0.0
2016-Jan-31 15:29N 39°26' W 000°19'0 0.0
2016-Jan-31 14:32N 39°26' W 000°19'0 0.0
2016-Jan-31 13:32N 39°26' W 000°19'0 0.0
2016-Jan-31 12:32N 39°26' W 000°19'0 0.0
2016-Jan-31 11:32N 39°26' W 000°19'0 0.0
2016-Jan-31 10:32N 39°26' W 000°19'0 0.0
2016-Jan-31 09:32N 39°26' W 000°19'0 0.0
2016-Jan-31 08:32N 39°26' W 000°19'0 0.0
2016-Jan-31 07:32N 39°26' W 000°19'0 0.0
2016-Jan-31 06:32N 39°26' W 000°19'0 0.0
2016-Jan-31 05:32N 39°26' W 000°19'0 0.0
2016-Jan-31 04:32N 39°26' W 000°19'0 0.0
2016-Jan-31 03:32N 39°26' W 000°19'0 0.0
2016-Jan-31 02:29N 39°26' W 000°19'0 0.0
2016-Jan-31 01:33N 39°26' W 000°19'1 0.6
2016-Jan-31 00:32N 39°26' W 000°19'0 0.0
2016-Jan-30 23:32N 39°26' W 000°19'0 0.0
2016-Jan-30 22:32N 39°26' W 000°19'0 0.0
2016-Jan-30 21:29N 39°26' W 000°19'0 0.0
2016-Jan-30 20:32N 39°26' W 000°19'0 0.0
2016-Jan-30 19:32N 39°26' W 000°19'  

Dump ship's entire track history